sensor_id;sensor_type;location;lat;lon;timestamp;temperature;humidity
10441;DHT22;5268;49.346;9.522;2023-12-20T04:06:37;5.70;99.90
10441;DHT22;5268;49.346;9.522;2023-12-20T04:11:44;5.70;99.90
10441;DHT22;5268;49.346;9.522;2023-12-20T04:16:50;5.70;99.90
10441;DHT22;5268;49.346;9.522;2023-12-20T04:21:59;5.70;99.90
10441;DHT22;5268;49.346;9.522;2023-12-20T04:27:23;5.70;99.90
10441;DHT22;5268;49.346;9.522;2023-12-20T04:32:43;5.70;99.90
10441;DHT22;5268;49.346;9.522;2023-12-20T04:38:00;5.60;99.90
10441;DHT22;5268;49.346;9.522;2023-12-20T04:43:07;5.70;99.90
10441;DHT22;5268;49.346;9.522;2023-12-20T04:48:12;5.70;99.90
10441;DHT22;5268;49.346;9.522;2023-12-20T04:53:23;5.70;99.90
10441;DHT22;5268;49.346;9.522;2023-12-20T04:58:28;5.70;99.90
10441;DHT22;5268;49.346;9.522;2023-12-20T05:03:37;5.70;99.90
10441;DHT22;5268;49.346;9.522;2023-12-20T05:08:47;5.70;99.90
10441;DHT22;5268;49.346;9.522;2023-12-20T05:14:06;5.70;99.90
10441;DHT22;5268;49.346;9.522;2023-12-20T05:19:14;5.80;99.90
10441;DHT22;5268;49.346;9.522;2023-12-20T05:24:20;5.80;99.90
10441;DHT22;5268;49.346;9.522;2023-12-20T05:29:22;5.80;99.90
10441;DHT22;5268;49.346;9.522;2023-12-20T05:34:24;5.70;99.90
10441;DHT22;5268;49.346;9.522;2023-12-20T05:39:30;5.80;99.90
10441;DHT22;5268;49.346;9.522;2023-12-20T05:44:35;5.80;99.90
10441;DHT22;5268;49.346;9.522;2023-12-20T05:49:37;5.80;99.90
10441;DHT22;5268;49.346;9.522;2023-12-20T05:54:41;5.80;99.90
10441;DHT22;5268;49.346;9.522;2023-12-20T05:59:43;5.80;99.90
10441;DHT22;5268;49.346;9.522;2023-12-20T06:04:46;5.80;99.90
10441;DHT22;5268;49.346;9.522;2023-12-20T06:15:49;5.80;99.90
10441;DHT22;5268;49.346;9.522;2023-12-20T06:26:52;5.80;99.90
10441;DHT22;5268;49.346;9.522;2023-12-20T06:44:22;5.90;99.90
10441;DHT22;5268;49.346;9.522;2023-12-20T06:49:40;5.80;99.90
10441;DHT22;5268;49.346;9.522;2023-12-20T06:55:04;5.90;99.90
10441;DHT22;5268;49.346;9.522;2023-12-20T07:00:31;5.90;99.90
10441;DHT22;5268;49.346;9.522;2023-12-20T07:05:56;5.90;99.90
10441;DHT22;5268;49.346;9.522;2023-12-20T07:11:23;5.90;99.90
10441;DHT22;5268;49.346;9.522;2023-12-20T07:16:45;5.90;99.90
10441;DHT22;5268;49.346;9.522;2023-12-20T07:22:18;5.90;99.90
10441;DHT22;5268;49.346;9.522;2023-12-20T07:27:25;5.90;99.90
10441;DHT22;5268;49.346;9.522;2023-12-20T07:39:03;6.00;99.90
10441;DHT22;5268;49.346;9.522;2023-12-20T07:44:17;5.90;99.90
10441;DHT22;5268;49.346;9.522;2023-12-20T07:56:06;5.90;99.90
10441;DHT22;5268;49.346;9.522;2023-12-20T08:01:16;5.90;99.90
10441;DHT22;5268;49.346;9.522;2023-12-20T08:06:21;5.90;99.90
10441;DHT22;5268;49.346;9.522;2023-12-20T09:04:52;11.60;99.90
10441;DHT22;5268;49.346;9.522;2023-12-20T09:16:29;10.20;99.90
10441;DHT22;5268;49.346;9.522;2023-12-20T09:22:30;9.20;99.90
10441;DHT22;5268;49.346;9.522;2023-12-20T09:34:44;8.00;99.90
10441;DHT22;5268;49.346;9.522;2023-12-20T09:46:06;7.40;99.90
10441;DHT22;5268;49.346;9.522;2023-12-20T09:51:12;7.20;99.90
10441;DHT22;5268;49.346;9.522;2023-12-20T09:56:15;7.10;99.90
10441;DHT22;5268;49.346;9.522;2023-12-20T10:01:18;7.10;99.90
10441;DHT22;5268;49.346;9.522;2023-12-20T10:06:21;7.00;99.90
10441;DHT22;5268;49.346;9.522;2023-12-20T10:11:23;7.00;99.90
10441;DHT22;5268;49.346;9.522;2023-12-20T10:16:28;7.00;99.90
10441;DHT22;5268;49.346;9.522;2023-12-20T10:21:34;7.00;99.90
10441;DHT22;5268;49.346;9.522;2023-12-20T10:26:36;6.90;99.90
10441;DHT22;5268;49.346;9.522;2023-12-20T10:31:40;6.90;99.90
10441;DHT22;5268;49.346;9.522;2023-12-20T10:36:43;6.90;99.90
10441;DHT22;5268;49.346;9.522;2023-12-20T10:41:48;6.80;99.90
10441;DHT22;5268;49.346;9.522;2023-12-20T10:46:59;6.80;99.90
10441;DHT22;5268;49.346;9.522;2023-12-20T10:52:04;6.80;99.90
10441;DHT22;5268;49.346;9.522;2023-12-20T10:57:26;6.80;99.90
10441;DHT22;5268;49.346;9.522;2023-12-20T11:08:38;6.80;99.90
10441;DHT22;5268;49.346;9.522;2023-12-20T11:14:22;6.70;99.90
10441;DHT22;5268;49.346;9.522;2023-12-20T11:31:52;6.70;99.90
10441;DHT22;5268;49.346;9.522;2023-12-20T11:49:56;6.70;99.90
10441;DHT22;5268;49.346;9.522;2023-12-20T11:55:22;6.80;99.90
10441;DHT22;5268;49.346;9.522;2023-12-20T12:00:58;7.00;99.90
10441;DHT22;5268;49.346;9.522;2023-12-20T12:12:40;7.00;99.90
10441;DHT22;5268;49.346;9.522;2023-12-20T12:19:36;6.90;99.90
10441;DHT22;5268;49.346;9.522;2023-12-20T12:30:10;6.90;99.90
10441;DHT22;5268;49.346;9.522;2023-12-20T12:35:44;6.90;99.90
10441;DHT22;5268;49.346;9.522;2023-12-20T12:46:42;6.90;99.90
10441;DHT22;5268;49.346;9.522;2023-12-20T12:52:14;6.90;99.90
10441;DHT22;5268;49.346;9.522;2023-12-20T12:57:32;6.90;99.90
10441;DHT22;5268;49.346;9.522;2023-12-20T13:02:39;6.80;99.90
10441;DHT22;5268;49.346;9.522;2023-12-20T13:07:53;6.70;99.90
10441;DHT22;5268;49.346;9.522;2023-12-20T13:13:16;6.70;99.90
10441;DHT22;5268;49.346;9.522;2023-12-20T13:18:31;6.60;99.90
10441;DHT22;5268;49.346;9.522;2023-12-20T13:24:05;6.50;99.90
10441;DHT22;5268;49.346;9.522;2023-12-20T13:29:26;6.50;99.90
10441;DHT22;5268;49.346;9.522;2023-12-20T13:34:43;6.50;99.90
10441;DHT22;5268;49.346;9.522;2023-12-20T13:39:56;6.40;99.90
10441;DHT22;5268;49.346;9.522;2023-12-20T13:45:00;6.40;99.90
10441;DHT22;5268;49.346;9.522;2023-12-20T13:50:14;6.30;99.90
10441;DHT22;5268;49.346;9.522;2023-12-20T13:55:29;6.30;99.90
10441;DHT22;5268;49.346;9.522;2023-12-20T14:00:33;6.30;99.90
10441;DHT22;5268;49.346;9.522;2023-12-20T14:05:40;6.20;99.90
10441;DHT22;5268;49.346;9.522;2023-12-20T14:10:43;6.20;99.90
10441;DHT22;5268;49.346;9.522;2023-12-20T14:15:49;6.20;99.90
10441;DHT22;5268;49.346;9.522;2023-12-20T14:21:10;6.10;99.90
10441;DHT22;5268;49.346;9.522;2023-12-20T14:26:16;6.10;99.90
10441;DHT22;5268;49.346;9.522;2023-12-20T14:31:30;6.10;99.90
10441;DHT22;5268;49.346;9.522;2023-12-20T14:36:45;6.10;99.90
10441;DHT22;5268;49.346;9.522;2023-12-20T14:41:51;6.10;99.90
10441;DHT22;5268;49.346;9.522;2023-12-20T14:47:01;6.10;99.90
10441;DHT22;5268;49.346;9.522;2023-12-20T14:52:11;6.10;99.90
10441;DHT22;5268;49.346;9.522;2023-12-20T14:57:31;6.10;99.90
10441;DHT22;5268;49.346;9.522;2023-12-20T15:08:49;6.00;99.90
10441;DHT22;5268;49.346;9.522;2023-12-20T15:13:57;6.10;99.90
10441;DHT22;5268;49.346;9.522;2023-12-20T15:19:01;6.10;99.90
10441;DHT22;5268;49.346;9.522;2023-12-20T15:24:10;6.00;99.90
10441;DHT22;5268;49.346;9.522;2023-12-20T15:29:23;6.00;99.90
10441;DHT22;5268;49.346;9.522;2023-12-20T15:34:30;6.00;99.90
10441;DHT22;5268;49.346;9.522;2023-12-20T15:39:53;5.90;99.90
10441;DHT22;5268;49.346;9.522;2023-12-20T15:50:39;5.90;99.90
10441;DHT22;5268;49.346;9.522;2023-12-20T15:55:56;6.00;99.90
10441;DHT22;5268;49.346;9.522;2023-12-20T16:01:15;5.90;99.90
10441;DHT22;5268;49.346;9.522;2023-12-20T16:06:17;5.90;99.90
10441;DHT22;5268;49.346;9.522;2023-12-20T16:11:21;5.90;99.90
10441;DHT22;5268;49.346;9.522;2023-12-20T16:16:26;5.90;99.90
10441;DHT22;5268;49.346;9.522;2023-12-20T16:21:44;5.90;99.90
10441;DHT22;5268;49.346;9.522;2023-12-20T16:27:04;5.90;99.90
10441;DHT22;5268;49.346;9.522;2023-12-20T16:32:11;5.90;99.90
10441;DHT22;5268;49.346;9.522;2023-12-20T16:37:21;5.90;99.90
10441;DHT22;5268;49.346;9.522;2023-12-20T16:42:56;5.90;99.90
10441;DHT22;5268;49.346;9.522;2023-12-20T16:48:03;5.90;99.90
10441;DHT22;5268;49.346;9.522;2023-12-20T16:53:23;5.90;99.90
10441;DHT22;5268;49.346;9.522;2023-12-20T16:58:30;5.90;99.90
10441;DHT22;5268;49.346;9.522;2023-12-20T17:03:34;5.90;99.90
10441;DHT22;5268;49.346;9.522;2023-12-20T17:08:39;5.90;99.90
10441;DHT22;5268;49.346;9.522;2023-12-20T17:13:47;5.90;99.90
10441;DHT22;5268;49.346;9.522;2023-12-20T17:18:49;5.90;99.90
10441;DHT22;5268;49.346;9.522;2023-12-20T17:23:57;5.90;99.90
10441;DHT22;5268;49.346;9.522;2023-12-20T17:29:10;5.90;99.90
10441;DHT22;5268;49.346;9.522;2023-12-20T17:34:13;5.90;99.90
10441;DHT22;5268;49.346;9.522;2023-12-20T17:39:19;5.90;99.90
10441;DHT22;5268;49.346;9.522;2023-12-20T17:44:37;5.90;99.90
10441;DHT22;5268;49.346;9.522;2023-12-20T17:49:39;5.90;99.90
10441;DHT22;5268;49.346;9.522;2023-12-20T17:54:41;5.90;99.90
10441;DHT22;5268;49.346;9.522;2023-12-20T17:59:45;5.90;99.90
10441;DHT22;5268;49.346;9.522;2023-12-20T18:04:47;5.90;99.90
10441;DHT22;5268;49.346;9.522;2023-12-20T18:09:49;5.90;99.90
10441;DHT22;5268;49.346;9.522;2023-12-20T18:14:53;5.90;99.90
10441;DHT22;5268;49.346;9.522;2023-12-20T18:19:56;5.90;99.90
10441;DHT22;5268;49.346;9.522;2023-12-20T18:25:00;5.90;99.90
10441;DHT22;5268;49.346;9.522;2023-12-20T18:30:05;5.90;99.90
10441;DHT22;5268;49.346;9.522;2023-12-20T18:35:07;5.90;99.90
10441;DHT22;5268;49.346;9.522;2023-12-20T18:40:11;5.90;99.90
10441;DHT22;5268;49.346;9.522;2023-12-20T18:45:17;5.90;99.90
10441;DHT22;5268;49.346;9.522;2023-12-20T18:50:19;6.00;99.90
10441;DHT22;5268;49.346;9.522;2023-12-20T18:55:21;6.00;99.90
10441;DHT22;5268;49.346;9.522;2023-12-20T19:00:25;6.00;99.90
10441;DHT22;5268;49.346;9.522;2023-12-20T19:05:27;5.90;99.90
10441;DHT22;5268;49.346;9.522;2023-12-20T19:10:29;6.00;99.90
10441;DHT22;5268;49.346;9.522;2023-12-20T19:15:33;5.90;99.90
10441;DHT22;5268;49.346;9.522;2023-12-20T19:20:35;5.90;99.90
10441;DHT22;5268;49.346;9.522;2023-12-20T19:25:37;5.90;99.90
10441;DHT22;5268;49.346;9.522;2023-12-20T19:30:40;5.90;99.90
10441;DHT22;5268;49.346;9.522;2023-12-20T19:35:42;5.90;99.90
10441;DHT22;5268;49.346;9.522;2023-12-20T19:40:45;5.90;99.90
10441;DHT22;5268;49.346;9.522;2023-12-20T19:45:49;5.90;99.90
10441;DHT22;5268;49.346;9.522;2023-12-20T19:50:51;5.90;99.90
10441;DHT22;5268;49.346;9.522;2023-12-20T19:55:53;5.90;99.90
10441;DHT22;5268;49.346;9.522;2023-12-20T20:00:57;5.90;99.90
10441;DHT22;5268;49.346;9.522;2023-12-20T20:05:59;5.90;99.90
10441;DHT22;5268;49.346;9.522;2023-12-20T20:11:01;5.90;99.90
10441;DHT22;5268;49.346;9.522;2023-12-20T20:16:05;5.90;99.90
10441;DHT22;5268;49.346;9.522;2023-12-20T20:21:07;5.90;99.90
10441;DHT22;5268;49.346;9.522;2023-12-20T20:26:09;5.90;99.90
10441;DHT22;5268;49.346;9.522;2023-12-20T20:31:12;5.90;99.90
10441;DHT22;5268;49.346;9.522;2023-12-20T20:36:15;5.90;99.90
10441;DHT22;5268;49.346;9.522;2023-12-20T20:41:17;5.90;99.90
10441;DHT22;5268;49.346;9.522;2023-12-20T20:46:21;5.90;99.90
10441;DHT22;5268;49.346;9.522;2023-12-20T20:51:27;5.90;99.90
10441;DHT22;5268;49.346;9.522;2023-12-20T20:56:32;6.00;99.90
10441;DHT22;5268;49.346;9.522;2023-12-20T21:01:36;6.00;99.90
10441;DHT22;5268;49.346;9.522;2023-12-20T21:06:38;6.00;99.90
10441;DHT22;5268;49.346;9.522;2023-12-20T21:11:40;6.00;99.90
10441;DHT22;5268;49.346;9.522;2023-12-20T21:16:44;6.00;99.90
10441;DHT22;5268;49.346;9.522;2023-12-20T21:21:46;6.10;99.90
10441;DHT22;5268;49.346;9.522;2023-12-20T21:26:48;6.10;99.90
10441;DHT22;5268;49.346;9.522;2023-12-20T21:31:51;6.10;99.90
10441;DHT22;5268;49.346;9.522;2023-12-20T21:36:53;6.10;99.90
10441;DHT22;5268;49.346;9.522;2023-12-20T21:41:55;6.20;99.90
10441;DHT22;5268;49.346;9.522;2023-12-20T21:46:58;6.20;99.90
10441;DHT22;5268;49.346;9.522;2023-12-20T21:52:00;6.20;99.90
10441;DHT22;5268;49.346;9.522;2023-12-20T21:57:03;6.20;99.90
10441;DHT22;5268;49.346;9.522;2023-12-20T22:02:06;6.20;99.90
10441;DHT22;5268;49.346;9.522;2023-12-20T22:07:08;6.20;99.90
10441;DHT22;5268;49.346;9.522;2023-12-20T22:12:11;6.20;99.90
10441;DHT22;5268;49.346;9.522;2023-12-20T22:17:16;6.20;99.90
10441;DHT22;5268;49.346;9.522;2023-12-20T22:22:18;6.20;99.90
10441;DHT22;5268;49.346;9.522;2023-12-20T22:27:21;6.10;99.90
10441;DHT22;5268;49.346;9.522;2023-12-20T22:32:24;6.10;99.90
10441;DHT22;5268;49.346;9.522;2023-12-20T22:37:28;6.10;99.90
10441;DHT22;5268;49.346;9.522;2023-12-20T22:42:30;6.10;99.90
10441;DHT22;5268;49.346;9.522;2023-12-20T22:47:36;6.10;99.90
10441;DHT22;5268;49.346;9.522;2023-12-20T22:52:39;6.10;99.90
